createdAt,value
2018-05-13T00:00:29.516Z,993.56
2018-05-13T00:03:03.936Z,993.48
2018-05-13T00:05:35.417Z,993.50
2018-05-13T00:08:07.384Z,993.50
2018-05-13T00:10:39.107Z,993.48
2018-05-13T00:13:10.532Z,993.48
2018-05-13T00:15:42.038Z,993.51
2018-05-13T00:18:13.562Z,993.50
2018-05-13T00:20:46.322Z,993.48
2018-05-13T00:23:17.778Z,993.51
2018-05-13T00:25:49.366Z,993.56
2018-05-13T00:28:21.165Z,993.59
2018-05-13T00:30:52.690Z,993.61
2018-05-13T00:33:24.149Z,993.56
2018-05-13T00:35:55.821Z,993.57
2018-05-13T00:38:27.301Z,993.59
2018-05-13T00:40:59.686Z,993.59
2018-05-13T00:43:31.039Z,993.52
2018-05-13T00:46:03.949Z,993.52
2018-05-13T00:48:35.388Z,993.47
2018-05-13T00:51:07.292Z,993.49
2018-05-13T00:53:39.214Z,993.47
2018-05-13T00:56:10.789Z,993.47
2018-05-13T00:58:42.206Z,993.43
2018-05-13T01:01:13.673Z,993.38
2018-05-13T01:03:45.398Z,993.46
2018-05-13T01:06:16.983Z,993.42
2018-05-13T01:08:48.414Z,993.43
2018-05-13T01:11:21.336Z,993.42
2018-05-13T01:13:52.753Z,993.42
2018-05-13T01:16:24.251Z,993.41
2018-05-13T01:18:56.193Z,993.39
2018-05-13T01:21:27.660Z,993.38
2018-05-13T01:23:59.244Z,993.39
2018-05-13T01:26:30.701Z,993.39
2018-05-13T01:29:03.251Z,993.41
2018-05-13T01:31:34.655Z,993.48
2018-05-13T01:34:06.528Z,993.44
2018-05-13T01:36:38.464Z,993.45
2018-05-13T01:39:10.568Z,993.46
2018-05-13T01:41:42.187Z,993.42
2018-05-13T01:44:13.787Z,993.46
2018-05-13T01:46:45.200Z,993.56
2018-05-13T01:49:16.687Z,993.63
2018-05-13T01:51:48.513Z,993.66
2018-05-13T01:54:20.023Z,993.79
2018-05-13T01:56:51.597Z,993.76
2018-05-13T01:59:23.118Z,993.85
2018-05-13T02:01:54.587Z,993.89
2018-05-13T02:04:27.447Z,993.71
2018-05-13T02:06:58.863Z,993.74
2018-05-13T02:09:30.367Z,993.72
2018-05-13T02:12:02.469Z,993.69
2018-05-13T02:14:33.912Z,993.71
2018-05-13T02:17:05.439Z,993.69
2018-05-13T02:19:36.820Z,993.62
2018-05-13T02:22:08.933Z,993.65
2018-05-13T02:24:40.350Z,993.64
2018-05-13T02:27:12.591Z,993.63
2018-05-13T02:29:44.085Z,993.63
2018-05-13T02:32:15.760Z,993.62
2018-05-13T02:34:47.301Z,993.64
2018-05-13T02:37:20.256Z,993.67
2018-05-13T02:39:51.843Z,993.70
2018-05-13T02:42:23.272Z,993.69
2018-05-13T02:44:55.159Z,993.64
2018-05-13T02:47:26.573Z,993.57
2018-05-13T02:49:58.079Z,993.62
2018-05-13T02:52:30.091Z,993.65
2018-05-13T02:55:01.594Z,993.62
2018-05-13T02:57:32.988Z,993.60
2018-05-13T03:00:06.608Z,993.54
2018-05-13T03:02:38.099Z,993.55
2018-05-13T03:05:09.509Z,993.65
2018-05-13T03:07:41.293Z,993.75
2018-05-13T03:10:12.851Z,993.79
2018-05-13T03:12:44.367Z,993.88
2018-05-13T03:15:17.323Z,993.88
2018-05-13T03:17:49.647Z,993.86
2018-05-13T03:20:21.448Z,993.85
2018-05-13T03:22:54.065Z,993.85
2018-05-13T03:25:25.569Z,993.86
2018-05-13T03:27:57.044Z,993.87
2018-05-13T03:30:28.571Z,993.90
2018-05-13T03:32:59.993Z,993.91
2018-05-13T03:35:31.575Z,993.92
2018-05-13T03:38:04.553Z,993.99
2018-05-13T03:40:36.157Z,993.93
2018-05-13T03:43:07.654Z,993.96
2018-05-13T03:45:39.504Z,994.06
2018-05-13T03:48:10.968Z,994.14
2018-05-13T03:50:42.583Z,994.08
2018-05-13T03:53:14.505Z,994.06
2018-05-13T03:55:45.915Z,994.16
2018-05-13T03:58:17.682Z,994.22
2018-05-13T04:00:49.123Z,994.19
2018-05-13T04:03:20.814Z,994.11
2018-05-13T04:05:52.221Z,993.96
2018-05-13T04:09:15.238Z,993.94
2018-05-13T04:12:32.639Z,994.08
2018-05-13T04:15:19.806Z,994.23
2018-05-13T04:17:51.319Z,994.11
2018-05-13T04:20:23.151Z,994.10
2018-05-13T04:22:54.599Z,994.08
2018-05-13T04:25:26.528Z,994.11
2018-05-13T04:27:58.444Z,994.11
2018-05-13T04:30:29.931Z,994.11
2018-05-13T04:33:01.377Z,994.06
2018-05-13T04:35:33.208Z,994.03
2018-05-13T04:38:04.643Z,994.02
2018-05-13T04:40:36.446Z,994.01
2018-05-13T04:43:07.855Z,994.04
2018-05-13T04:45:39.342Z,994.05
2018-05-13T04:48:11.190Z,994.10
2018-05-13T04:50:42.647Z,994.13
2018-05-13T04:53:14.110Z,994.15
2018-05-13T04:55:45.500Z,994.10
2018-05-13T04:58:17.011Z,994.11
2018-05-13T05:00:48.473Z,994.12
2018-05-13T05:03:20.175Z,994.10
2018-05-13T05:05:51.673Z,994.06
2018-05-13T05:08:23.091Z,994.18
2018-05-13T05:10:54.692Z,994.21
2018-05-13T05:13:26.770Z,994.16
2018-05-13T05:15:58.248Z,994.16
2018-05-13T05:18:30.091Z,994.17
2018-05-13T05:21:02.184Z,994.18
2018-05-13T05:23:34.866Z,994.18
2018-05-13T05:26:06.470Z,994.13
2018-05-13T05:28:39.072Z,994.13
2018-05-13T05:31:10.811Z,994.22
2018-05-13T05:33:42.465Z,994.34
2018-05-13T05:36:13.856Z,994.34
2018-05-13T05:38:45.805Z,994.42
2018-05-13T05:41:17.888Z,994.51
2018-05-13T05:43:52.158Z,994.48
2018-05-13T05:46:24.416Z,994.59
2018-05-13T05:48:55.889Z,994.60
2018-05-13T05:51:27.889Z,994.65
2018-05-13T05:53:59.373Z,994.66
2018-05-13T05:56:30.921Z,994.65
2018-05-13T05:59:02.540Z,994.73
2018-05-13T06:01:34.399Z,994.84
2018-05-13T06:04:05.952Z,994.96
2018-05-13T06:06:37.413Z,995.04
2018-05-13T06:09:09.625Z,995.03
2018-05-13T06:11:41.076Z,995.05
2018-05-13T06:14:12.555Z,995.09
2018-05-13T06:16:44.567Z,995.08
2018-05-13T06:19:16.111Z,995.08
2018-05-13T06:21:47.962Z,995.01
2018-05-13T06:24:19.460Z,995.01
2018-05-13T06:26:51.710Z,995.00
2018-05-13T06:29:23.153Z,995.09
2018-05-13T06:31:55.181Z,995.11
2018-05-13T06:34:28.275Z,995.14
2018-05-13T06:36:59.846Z,995.13
2018-05-13T06:39:31.314Z,995.16
2018-05-13T06:42:03.139Z,995.19
2018-05-13T06:44:34.650Z,995.19
2018-05-13T06:47:06.277Z,995.23
2018-05-13T06:49:37.797Z,995.19
2018-05-13T06:52:09.339Z,995.13
2018-05-13T06:54:40.924Z,995.07
2018-05-13T06:57:12.867Z,995.10
2018-05-13T06:59:44.425Z,995.02
2018-05-13T07:02:16.157Z,995.00
2018-05-13T07:04:48.734Z,995.01
2018-05-13T07:07:20.160Z,995.09
2018-05-13T07:09:52.338Z,995.01
2018-05-13T07:12:24.244Z,995.01
2018-05-13T07:14:57.017Z,995.00
2018-05-13T07:17:28.656Z,995.02
2018-05-13T07:20:00.521Z,995.08
2018-05-13T07:22:32.098Z,995.07
2018-05-13T07:25:03.581Z,995.17
2018-05-13T07:27:36.406Z,995.17
2018-05-13T07:30:08.238Z,995.20
2018-05-13T07:32:39.875Z,995.17
2018-05-13T07:35:11.677Z,995.24
2018-05-13T07:37:43.138Z,995.27
2018-05-13T07:40:14.642Z,995.27
2018-05-13T07:42:46.284Z,995.21
2018-05-13T07:45:17.905Z,995.21
2018-05-13T07:47:51.470Z,995.15
2018-05-13T07:50:22.918Z,995.19
2018-05-13T07:52:55.009Z,995.25
2018-05-13T07:55:26.870Z,995.29
2018-05-13T07:57:58.858Z,995.28
2018-05-13T08:00:30.492Z,995.31
2018-05-13T08:03:02.432Z,995.35
2018-05-13T08:05:33.905Z,995.45
2018-05-13T08:08:05.576Z,995.43
2018-05-13T08:10:37.799Z,995.42
2018-05-13T08:13:09.449Z,995.48
2018-05-13T08:15:41.265Z,995.60
2018-05-13T08:18:13.320Z,995.75
2018-05-13T08:20:44.815Z,995.79
2018-05-13T08:23:16.253Z,995.69
2018-05-13T08:25:49.065Z,995.57
2018-05-13T08:28:20.627Z,995.48
2018-05-13T08:30:53.617Z,995.56
2018-05-13T08:33:25.505Z,995.80
2018-05-13T08:35:59.162Z,995.99
2018-05-13T08:38:30.758Z,996.12
2018-05-13T08:41:02.909Z,996.06
2018-05-13T08:43:34.900Z,995.79
2018-05-13T08:46:06.485Z,995.61
2018-05-13T08:48:38.011Z,995.55
2018-05-13T08:51:12.798Z,995.47
2018-05-13T08:53:44.393Z,995.41
2018-05-13T08:56:15.900Z,995.34
2018-05-13T08:58:47.769Z,995.28
2018-05-13T09:01:19.252Z,995.26
2018-05-13T09:03:51.323Z,995.26
2018-05-13T09:06:22.558Z,995.28
2018-05-13T09:08:55.925Z,995.31
2018-05-13T09:11:27.949Z,995.28
2018-05-13T09:14:04.265Z,995.33
2018-05-13T09:16:39.074Z,995.26
2018-05-13T09:19:10.496Z,995.33
2018-05-13T09:21:42.055Z,995.38
2018-05-13T09:24:13.604Z,995.43
2018-05-13T09:26:45.140Z,995.57
2018-05-13T09:29:16.940Z,995.67
2018-05-13T09:31:48.660Z,995.81
2018-05-13T09:34:19.900Z,995.93
2018-05-13T09:36:52.517Z,995.90
2018-05-13T09:39:23.905Z,995.83
2018-05-13T09:41:57.104Z,995.89
2018-05-13T09:44:29.682Z,995.88
2018-05-13T09:47:02.144Z,995.76
2018-05-13T09:49:33.794Z,995.90
2018-05-13T09:52:06.005Z,996.09
2018-05-13T09:54:37.694Z,996.03
2018-05-13T09:57:09.283Z,995.85
2018-05-13T09:59:41.178Z,996.10
2018-05-13T10:02:14.723Z,996.20
2018-05-13T10:04:46.280Z,995.99
2018-05-13T10:07:17.932Z,995.72
2018-05-13T10:09:49.581Z,995.78
2018-05-13T10:12:21.105Z,995.95
2018-05-13T10:14:54.796Z,996.06
2018-05-13T10:17:26.351Z,996.01
2018-05-13T10:20:00.144Z,995.98
2018-05-13T10:22:31.644Z,995.98
2018-05-13T10:25:03.774Z,996.15
2018-05-13T10:27:35.861Z,996.10
2018-05-13T10:30:08.698Z,995.98
2018-05-13T10:32:40.483Z,995.90
2018-05-13T10:35:14.344Z,996.03
2018-05-13T10:37:45.561Z,996.05
2018-05-13T10:40:22.093Z,996.03
2018-05-13T10:42:54.377Z,996.21
2018-05-13T10:45:26.857Z,996.39
2018-05-13T10:48:00.634Z,996.41
2018-05-13T10:50:32.443Z,996.24
2018-05-13T10:53:05.168Z,996.00
2018-05-13T10:55:36.613Z,995.96
2018-05-13T10:58:09.004Z,996.19
2018-05-13T11:00:40.431Z,996.23
2018-05-13T11:03:11.943Z,996.11
2018-05-13T11:05:43.638Z,996.04
2018-05-13T11:08:15.665Z,995.97
2018-05-13T11:10:47.381Z,995.86
2018-05-13T11:13:19.388Z,995.81
2018-05-13T11:15:50.931Z,995.86
2018-05-13T11:18:22.481Z,995.86
2018-05-13T11:20:54.440Z,996.03
2018-05-13T11:23:26.071Z,996.07
2018-05-13T11:26:00.471Z,996.11
2018-05-13T11:28:31.999Z,996.06
2018-05-13T11:31:04.991Z,995.99
2018-05-13T11:33:36.918Z,995.96
2018-05-13T11:36:08.487Z,995.93
2018-05-13T11:38:40.106Z,996.11
2018-05-13T11:41:11.618Z,996.32
2018-05-13T11:43:43.195Z,996.31
2018-05-13T11:46:14.949Z,996.28
2018-05-13T11:48:46.633Z,996.20
2018-05-13T11:51:18.088Z,996.13
2018-05-13T11:53:50.053Z,996.08
2018-05-13T11:56:21.650Z,996.18
2018-05-13T11:58:53.360Z,996.11
2018-05-13T12:01:25.384Z,995.97
2018-05-13T12:03:58.388Z,995.82
2018-05-13T12:06:30.128Z,995.89
2018-05-13T12:09:03.191Z,995.90
2018-05-13T12:11:34.673Z,995.97
2018-05-13T12:14:06.371Z,996.04
2018-05-13T12:16:38.387Z,996.13
2018-05-13T12:19:09.850Z,996.25
2018-05-13T12:21:41.442Z,996.30
2018-05-13T12:24:13.151Z,996.35
2018-05-13T12:26:45.166Z,996.33
2018-05-13T12:29:17.158Z,996.32
2018-05-13T12:31:48.654Z,996.26
2018-05-13T12:34:20.115Z,996.15
2018-05-13T12:36:51.691Z,996.07
2018-05-13T12:39:23.118Z,996.10
2018-05-13T12:41:56.207Z,996.04
2018-05-13T12:44:27.640Z,996.13
2018-05-13T12:47:02.397Z,996.16
2018-05-13T12:49:33.819Z,996.01
2018-05-13T12:52:06.289Z,996.01
2018-05-13T12:54:38.610Z,996.00
2018-05-13T12:57:10.401Z,995.91
2018-05-13T12:59:41.932Z,995.98
2018-05-13T13:02:13.426Z,995.96
2018-05-13T13:04:45.367Z,995.91
2018-05-13T13:07:17.004Z,995.91
2018-05-13T13:09:48.555Z,995.94
2018-05-13T13:12:20.484Z,995.82
2018-05-13T13:14:52.871Z,995.86
2018-05-13T13:17:25.104Z,995.81
2018-05-13T13:19:56.972Z,995.77
2018-05-13T13:22:29.468Z,995.72
2018-05-13T13:25:02.104Z,995.68
2018-05-13T13:27:34.437Z,995.62
2018-05-13T13:30:08.271Z,995.58
2018-05-13T13:32:40.848Z,995.68
2018-05-13T13:35:18.548Z,995.71
2018-05-13T13:37:49.372Z,995.74
2018-05-13T13:40:23.902Z,995.65
2018-05-13T13:42:56.742Z,995.53
2018-05-13T13:45:29.464Z,995.57
2018-05-13T13:48:01.053Z,995.61
2018-05-13T13:50:34.658Z,995.60
2018-05-13T13:53:06.682Z,995.59
2018-05-13T13:55:39.307Z,995.60
2018-05-13T13:58:12.890Z,995.64
2018-05-13T14:00:45.378Z,995.64
2018-05-13T14:03:21.135Z,995.60
2018-05-13T14:05:52.967Z,995.44
2018-05-13T14:08:26.535Z,995.43
2018-05-13T14:10:58.969Z,995.37
2018-05-13T14:13:31.546Z,995.48
2018-05-13T14:16:04.037Z,995.53
2018-05-13T14:18:38.635Z,995.51
2018-05-13T14:21:11.401Z,995.49
2018-05-13T14:23:44.044Z,995.42
2018-05-13T14:26:18.327Z,995.32
2018-05-13T14:28:50.431Z,995.23
2018-05-13T14:31:24.534Z,995.23
2018-05-13T14:33:58.701Z,995.26
2018-05-13T14:36:31.952Z,995.15
2018-05-13T14:39:11.823Z,995.07
2018-05-13T14:41:36.519Z,994.96
2018-05-13T14:44:08.008Z,994.95
2018-05-13T14:46:40.189Z,994.92
2018-05-13T14:49:12.852Z,994.92
2018-05-13T14:51:45.777Z,994.94
2018-05-13T14:54:23.977Z,995.01
2018-05-13T14:56:55.407Z,995.04
2018-05-13T14:59:34.511Z,995.10
2018-05-13T15:02:10.363Z,995.07
2018-05-13T15:04:41.937Z,995.12
2018-05-13T15:07:34.429Z,995.18
2018-05-13T15:10:15.129Z,995.19
2018-05-13T15:12:53.155Z,995.25
2018-05-13T15:15:28.176Z,995.30
2018-05-13T15:18:05.626Z,995.35
2018-05-13T15:20:38.083Z,995.37
2018-05-13T15:23:10.676Z,995.44
2018-05-13T15:25:42.948Z,995.54
2018-05-13T15:28:16.864Z,995.58
2018-05-13T15:30:50.047Z,995.60
2018-05-13T15:33:24.364Z,995.58
2018-05-13T15:35:58.031Z,995.68
2018-05-13T15:38:30.407Z,995.72
2018-05-13T15:41:02.911Z,995.74
2018-05-13T15:43:35.406Z,995.64
2018-05-13T15:46:08.001Z,995.60
2018-05-13T15:48:39.979Z,995.56
2018-05-13T15:51:12.629Z,995.56
2018-05-13T15:53:45.778Z,995.61
2018-05-13T15:56:21.565Z,995.56
2018-05-13T15:58:53.389Z,995.60
2018-05-13T16:01:25.619Z,995.64
2018-05-13T16:03:57.385Z,995.63
2018-05-13T16:06:29.778Z,995.61
2018-05-13T16:09:01.652Z,995.51
2018-05-13T16:11:33.184Z,995.49
2018-05-13T16:14:04.917Z,995.55
2018-05-13T16:16:36.495Z,995.67
2018-05-13T16:19:08.547Z,995.60
2018-05-13T16:21:40.114Z,995.66
2018-05-13T16:24:12.661Z,995.60
2018-05-13T16:26:44.490Z,995.56
2018-05-13T16:29:20.008Z,995.55
2018-05-13T16:31:51.775Z,995.54
2018-05-13T16:34:24.965Z,995.50
2018-05-13T16:36:57.693Z,995.48
2018-05-13T16:39:29.757Z,995.40
2018-05-13T16:42:02.079Z,995.27
2018-05-13T16:44:34.335Z,995.30
2018-05-13T16:47:06.458Z,995.32
2018-05-13T16:49:38.022Z,995.28
2018-05-13T16:52:09.551Z,995.24
2018-05-13T16:54:41.579Z,995.12
2018-05-13T16:57:14.651Z,995.15
2018-05-13T16:59:46.527Z,995.07
2018-05-13T17:02:20.018Z,995.18
2018-05-13T17:04:52.909Z,995.19
2018-05-13T17:07:25.796Z,995.21
2018-05-13T17:09:58.116Z,995.24
2018-05-13T17:12:32.071Z,995.38
2018-05-13T17:15:07.905Z,995.42
2018-05-13T17:17:40.650Z,995.39
2018-05-13T17:20:13.619Z,995.46
2018-05-13T17:22:46.871Z,995.55
2018-05-13T17:25:23.338Z,995.64
2018-05-13T17:27:54.795Z,995.66
2018-05-13T17:30:27.148Z,995.71
2018-05-13T17:32:59.627Z,995.67
2018-05-13T17:35:32.567Z,995.66
2018-05-13T17:38:05.017Z,995.77
2018-05-13T17:40:37.801Z,995.81
2018-05-13T17:43:11.553Z,995.80
2018-05-13T17:45:44.487Z,995.84
2018-05-13T17:48:21.579Z,995.80
2018-05-13T17:50:54.100Z,995.81
2018-05-13T17:53:27.219Z,995.81
2018-05-13T17:56:00.172Z,995.79
2018-05-13T17:58:32.238Z,995.84
2018-05-13T18:01:04.380Z,995.94
2018-05-13T18:03:36.808Z,995.94
2018-05-13T18:06:09.081Z,995.94
2018-05-13T18:08:44.464Z,995.87
2018-05-13T18:11:17.811Z,995.82
2018-05-13T18:13:50.146Z,995.90
2018-05-13T18:16:26.766Z,995.93
2018-05-13T18:18:58.990Z,995.93
2018-05-13T18:21:31.719Z,995.97
2018-05-13T18:24:04.227Z,995.96
2018-05-13T18:26:37.268Z,995.97
2018-05-13T18:29:10.478Z,995.92
2018-05-13T18:31:43.123Z,995.94
2018-05-13T18:34:18.723Z,995.93
2018-05-13T18:36:50.784Z,995.98
2018-05-13T18:39:23.968Z,995.96
2018-05-13T18:41:56.614Z,995.93
2018-05-13T18:44:29.296Z,995.94
2018-05-13T18:47:02.920Z,995.96
2018-05-13T18:49:35.780Z,995.99
2018-05-13T18:52:08.235Z,996.00
2018-05-13T18:54:40.771Z,996.05
2018-05-13T18:57:13.735Z,996.02
2018-05-13T18:59:46.209Z,995.84
